Time;durP1;ratioP1;P1;durP2;ratioP2;P2;SDS_P1;SDS_P2;PMS_P1;PMS_P2;Temp;Humidity;BMP_temperature;BMP_pressure;BME280_temperature;BME280_humidity;BME280_pressure;Samples;Min_cycle;Max_cycle;Signal;HPM_P1;HPM_P2
2023/11/11 00:02:16;;;;;;;4.80;3.00;;;7.40;1.00;;;;;;5135131;27;20566;-70
2023/11/11 00:04:43;;;;;;;4.15;3.70;;;7.30;1.00;;;;;;5121780;27;20538;-69
2023/11/11 00:07:10;;;;;;;4.40;3.42;;;7.20;1.00;;;;;;5124076;27;20721;-75
2023/11/11 00:09:38;;;;;;;3.72;3.30;;;7.20;1.00;;;;;;5124069;27;20240;-70
2023/11/11 00:12:07;;;;;;;3.80;3.17;;;7.20;1.00;;;;;;5125221;27;20293;-69
2023/11/11 00:14:34;;;;;;;4.70;3.30;;;7.20;1.00;;;;;;5126329;27;21726;-69
2023/11/11 00:17:01;;;;;;;3.28;2.88;;;7.20;1.00;;;;;;5126135;27;20475;-71
2023/11/11 00:19:29;;;;;;;4.03;3.63;;;7.20;1.00;;;;;;5126663;27;20320;-70
2023/11/11 00:21:56;;;;;;;4.33;3.93;;;7.30;1.00;;;;;;5131529;27;20568;-72
2023/11/11 00:24:23;;;;;;;4.80;3.70;;;7.30;1.00;;;;;;5125973;27;20505;-71
2023/11/11 00:26:51;;;;;;;4.03;3.00;;;7.30;1.00;;;;;;5129011;27;20311;-77
2023/11/11 00:29:18;;;;;;;4.27;3.40;;;7.30;1.00;;;;;;5127570;27;21215;-77
2023/11/11 00:31:47;;;;;;;3.80;3.40;;;7.40;1.00;;;;;;5126091;27;21245;-79
2023/11/11 00:34:15;;;;;;;3.80;3.50;;;7.50;1.00;;;;;;5117630;27;20455;-79
2023/11/11 00:36:42;;;;;;;3.70;3.40;;;7.50;1.00;;;;;;5128149;27;20452;-77
2023/11/11 00:39:12;;;;;;;3.43;3.10;;;7.60;1.00;;;;;;5110608;27;20445;-79
2023/11/11 00:41:39;;;;;;;4.10;3.73;;;7.50;1.00;;;;;;5133751;27;20482;-79
2023/11/11 00:44:09;;;;;;;4.30;3.70;;;7.60;1.00;;;;;;5144500;27;20464;-75
2023/11/11 00:46:37;;;;;;;3.93;3.60;;;7.60;1.00;;;;;;5129354;27;20448;-80
2023/11/11 00:49:04;;;;;;;4.77;3.47;;;7.60;1.00;;;;;;5143094;27;20464;-78
2023/11/11 00:51:31;;;;;;;3.70;3.23;;;7.60;1.00;;;;;;5147825;27;20444;-79
2023/11/11 00:53:59;;;;;;;3.57;3.27;;;7.70;1.00;;;;;;5129986;27;20451;-79
2023/11/11 00:56:25;;;;;;;7.70;4.10;;;7.60;1.00;;;;;;5127944;27;21035;-79
2023/11/11 00:58:53;;;;;;;5.03;3.50;;;7.60;1.00;;;;;;5127452;27;20506;-79
2023/11/11 01:01:21;;;;;;;4.10;3.70;;;7.60;1.00;;;;;;5143188;27;20546;-79
2023/11/11 01:03:48;;;;;;;5.20;3.10;;;7.50;1.00;;;;;;5136754;27;20951;-77
2023/11/11 01:06:15;;;;;;;3.67;3.27;;;7.50;1.00;;;;;;5136332;27;20564;-79
2023/11/11 01:08:42;;;;;;;3.77;3.47;;;7.40;1.00;;;;;;5125215;27;20450;-79
2023/11/11 01:11:09;;;;;;;4.20;3.73;;;7.40;1.00;;;;;;5141089;27;20561;-75
2023/11/11 01:13:36;;;;;;;3.03;2.80;;;7.30;1.00;;;;;;5143739;27;20969;-79
2023/11/11 01:16:04;;;;;;;2.80;2.60;;;7.30;1.00;;;;;;5143544;27;20460;-80
2023/11/11 01:18:32;;;;;;;2.87;2.67;;;7.20;1.00;;;;;;5149883;27;20463;-74
2023/11/11 01:21:02;;;;;;;3.87;3.57;;;7.10;1.00;;;;;;5145028;27;21034;-80
2023/11/11 01:23:30;;;;;;;4.72;2.97;;;7.00;1.00;;;;;;5146224;27;20598;-80
2023/11/11 01:25:58;;;;;;;3.50;3.20;;;6.90;1.00;;;;;;5147771;27;20232;-80
2023/11/11 01:28:25;;;;;;;4.00;3.43;;;6.80;1.00;;;;;;5148442;27;20555;-80
2023/11/11 01:30:53;;;;;;;3.70;3.37;;;6.80;1.00;;;;;;5148047;27;20489;-78
2023/11/11 01:33:20;;;;;;;4.37;3.97;;;6.70;1.00;;;;;;5135938;27;20477;-79
2023/11/11 01:35:50;;;;;;;3.80;3.42;;;6.70;1.00;;;;;;5131540;27;20462;-80
2023/11/11 01:38:17;;;;;;;13.00;3.92;;;6.60;1.00;;;;;;5123621;27;20978;-72
2023/11/11 01:40:47;;;;;;;4.27;3.60;;;6.60;1.00;;;;;;5132281;27;20243;-70
2023/11/11 01:43:16;;;;;;;3.90;3.50;;;6.50;1.00;;;;;;5126031;27;20464;-69
2023/11/11 01:45:44;;;;;;;5.50;3.58;;;6.50;1.00;;;;;;5126255;27;20328;-69
2023/11/11 01:48:11;;;;;;;5.20;3.87;;;6.40;1.00;;;;;;5144524;27;20234;-70
2023/11/11 01:50:41;;;;;;;5.47;3.93;;;6.40;1.00;;;;;;5142112;27;22334;-70
2023/11/11 01:53:11;;;;;;;3.70;3.40;;;6.30;1.00;;;;;;5124870;27;20499;-73
2023/11/11 01:55:38;;;;;;;4.45;3.50;;;6.30;1.00;;;;;;5124067;27;20888;-70
2023/11/11 01:58:05;;;;;;;3.25;3.05;;;6.30;1.00;;;;;;5113986;27;20796;-71
2023/11/11 02:00:35;;;;;;;6.85;3.92;;;6.30;1.00;;;;;;5139422;27;21720;-73
2023/11/11 02:03:03;;;;;;;4.25;3.85;;;6.30;1.00;;;;;;5123558;27;21060;-71
2023/11/11 02:05:30;;;;;;;5.75;5.20;;;6.30;1.00;;;;;;5124631;27;20747;-73
2023/11/11 02:07:59;;;;;;;6.00;5.40;;;6.10;1.00;;;;;;5121767;27;20269;-69
2023/11/11 02:10:27;;;;;;;11.50;6.90;;;6.20;1.00;;;;;;5122136;27;20541;-70
2023/11/11 02:12:55;;;;;;;5.70;5.20;;;6.10;1.00;;;;;;5123561;27;20564;-70
2023/11/11 02:15:24;;;;;;;5.15;4.70;;;6.00;1.00;;;;;;5119805;27;20334;-71
2023/11/11 02:17:54;;;;;;;4.90;4.40;;;6.00;1.00;;;;;;5131368;27;20235;-71
2023/11/11 02:20:21;;;;;;;7.03;5.05;;;5.90;1.00;;;;;;5144591;27;20501;-70
2023/11/11 02:22:48;;;;;;;4.15;3.75;;;5.90;1.00;;;;;;5126465;27;21043;-71
2023/11/11 02:25:18;;;;;;;4.30;3.50;;;5.80;1.00;;;;;;5135508;27;20247;-71
2023/11/11 02:27:47;;;;;;;6.28;3.80;;;5.70;1.00;;;;;;5140333;27;21107;-71
2023/11/11 02:30:14;;;;;;;4.45;4.05;;;5.70;1.00;;;;;;5140828;27;20234;-71
2023/11/11 02:32:42;;;;;;;4.13;3.80;;;5.60;1.00;;;;;;5142810;27;20314;-71
2023/11/11 02:35:09;;;;;;;3.58;3.20;;;5.60;1.00;;;;;;5145239;27;20623;-70
2023/11/11 02:37:36;;;;;;;3.58;3.22;;;5.60;1.00;;;;;;5143055;27;20240;-71
2023/11/11 02:40:03;;;;;;;3.45;3.13;;;5.70;1.00;;;;;;5147960;27;20292;-69
2023/11/11 02:42:32;;;;;;;3.97;3.67;;;5.70;1.00;;;;;;5144525;27;20244;-70
2023/11/11 02:44:59;;;;;;;4.10;3.80;;;5.70;1.00;;;;;;5137263;27;20237;-73
2023/11/11 02:47:25;;;;;;;3.97;3.55;;;5.70;1.00;;;;;;5141964;27;20315;-76
2023/11/11 02:49:52;;;;;;;3.83;3.53;;;5.70;1.00;;;;;;5146087;27;20240;-75
2023/11/11 02:52:19;;;;;;;5.13;4.38;;;5.60;1.00;;;;;;5141612;27;20964;-74
2023/11/11 02:54:46;;;;;;;5.53;4.10;;;5.60;1.00;;;;;;5142309;27;20233;-76
2023/11/11 02:57:13;;;;;;;4.80;4.20;;;5.60;1.00;;;;;;5142289;27;20246;-75
2023/11/11 02:59:42;;;;;;;6.32;5.25;;;5.60;1.00;;;;;;5143417;27;20361;-73
2023/11/11 03:02:11;;;;;;;8.25;4.55;;;5.50;1.00;;;;;;5136823;27;20235;-76
2023/11/11 03:04:38;;;;;;;5.22;4.20;;;5.50;1.00;;;;;;5142210;27;20657;-76
2023/11/11 03:07:05;;;;;;;5.45;4.30;;;5.40;1.00;;;;;;5119239;27;20350;-75
2023/11/11 03:09:33;;;;;;;5.78;4.63;;;5.40;1.00;;;;;;5129558;27;20250;-74
2023/11/11 03:12:00;;;;;;;8.57;4.85;;;5.40;1.00;;;;;;5125979;27;20721;-75
2023/11/11 03:14:28;;;;;;;5.38;4.60;;;5.40;1.00;;;;;;5126745;27;20239;-75
2023/11/11 03:16:56;;;;;;;7.72;4.82;;;5.40;1.00;;;;;;5127842;27;21059;-76
2023/11/11 03:19:24;;;;;;;6.05;4.00;;;5.30;1.00;;;;;;5127458;27;20243;-75
2023/11/11 03:21:52;;;;;;;3.90;3.60;;;5.20;1.00;;;;;;5135526;27;20317;-75
2023/11/11 03:24:19;;;;;;;5.30;4.03;;;5.30;1.00;;;;;;5140041;27;20301;-76
2023/11/11 03:26:46;;;;;;;6.00;4.32;;;5.20;1.00;;;;;;5145895;27;20255;-74
2023/11/11 03:29:13;;;;;;;4.35;3.78;;;5.10;1.00;;;;;;5119408;27;21038;-76
2023/11/11 03:31:40;;;;;;;5.28;3.80;;;5.10;1.00;;;;;;5136796;27;20234;-74
2023/11/11 03:34:09;;;;;;;5.40;3.72;;;5.10;1.00;;;;;;5148638;27;20236;-76
2023/11/11 03:36:35;;;;;;;4.20;3.80;;;5.10;1.00;;;;;;5128923;27;20240;-75
2023/11/11 03:39:03;;;;;;;4.53;4.13;;;5.10;1.00;;;;;;5126074;27;20343;-75
2023/11/11 03:41:30;;;;;;;12.38;4.20;;;5.10;1.00;;;;;;5128782;27;20245;-76
2023/11/11 03:43:57;;;;;;;3.92;3.60;;;5.00;1.00;;;;;;5127709;27;20358;-74
2023/11/11 03:46:24;;;;;;;5.03;4.55;;;5.00;1.00;;;;;;5145078;27;20362;-76
2023/11/11 03:48:51;;;;;;;4.38;4.00;;;5.00;1.00;;;;;;5145890;27;21520;-75
2023/11/11 03:51:19;;;;;;;4.75;4.22;;;4.90;1.00;;;;;;5148947;27;20375;-74
2023/11/11 03:53:46;;;;;;;7.70;4.45;;;4.90;1.00;;;;;;5136089;27;20320;-76
2023/11/11 03:56:13;;;;;;;15.25;11.90;;;4.80;1.00;;;;;;5127040;27;20810;-76
2023/11/11 03:58:40;;;;;;;6.65;5.40;;;4.70;1.00;;;;;;5143814;27;20244;-71
2023/11/11 04:01:09;;;;;;;4.78;4.20;;;4.70;1.00;;;;;;5126071;27;20257;-70
2023/11/11 04:03:39;;;;;;;5.43;4.40;;;4.70;1.00;;;;;;5126509;27;20253;-71
2023/11/11 04:06:06;;;;;;;5.70;5.10;;;4.70;1.00;;;;;;5132834;27;21280;-71
2023/11/11 04:08:34;;;;;;;4.80;4.40;;;4.80;1.00;;;;;;5128706;27;21042;-71
2023/11/11 04:11:06;;;;;;;5.00;4.50;;;4.80;1.00;;;;;;5140728;27;20267;-74
2023/11/11 04:13:33;;;;;;;6.28;4.90;;;4.90;1.00;;;;;;5145206;27;20239;-71
2023/11/11 04:16:01;;;;;;;11.57;4.60;;;5.00;1.00;;;;;;5125141;27;20239;-73
2023/11/11 04:18:29;;;;;;;4.93;4.50;;;5.10;1.00;;;;;;5129828;27;20726;-71
2023/11/11 04:20:58;;;;;;;6.85;4.55;;;5.10;1.00;;;;;;5124585;27;21041;-69
2023/11/11 04:23:26;;;;;;;6.15;4.00;;;5.20;1.00;;;;;;5116114;27;20290;-72
2023/11/11 04:25:54;;;;;;;5.03;4.20;;;5.30;1.00;;;;;;5128610;27;20239;-71
2023/11/11 04:28:21;;;;;;;5.00;4.45;;;5.40;1.00;;;;;;5124892;27;20339;-71
2023/11/11 04:30:48;;;;;;;6.45;5.30;;;5.40;1.00;;;;;;5125261;27;20235;-69
2023/11/11 04:33:15;;;;;;;5.75;4.65;;;5.40;1.00;;;;;;5125971;27;20772;-71
2023/11/11 04:35:43;;;;;;;5.70;4.53;;;5.50;1.00;;;;;;5124491;27;20276;-71
2023/11/11 04:38:10;;;;;;;5.63;4.00;;;5.60;1.00;;;;;;5126464;27;20231;-70
2023/11/11 04:40:37;;;;;;;6.22;5.65;;;5.60;1.00;;;;;;5125254;27;20362;-72
2023/11/11 04:43:06;;;;;;;5.07;4.57;;;5.70;1.00;;;;;;5124249;27;20331;-71
2023/11/11 04:45:33;;;;;;;4.20;3.90;;;5.70;1.00;;;;;;5135131;27;20314;-70
2023/11/11 04:48:00;;;;;;;4.85;4.40;;;5.70;1.00;;;;;;5147663;27;20305;-70
2023/11/11 04:50:27;;;;;;;5.00;4.25;;;5.80;1.00;;;;;;5137069;27;20305;-70
2023/11/11 04:52:54;;;;;;;5.85;4.93;;;5.90;1.00;;;;;;5121968;27;20270;-70
2023/11/11 04:55:23;;;;;;;4.40;4.07;;;5.90;1.00;;;;;;5136612;27;20234;-70
2023/11/11 04:57:51;;;;;;;7.03;4.10;;;5.80;1.00;;;;;;5138057;27;20235;-72
2023/11/11 05:00:20;;;;;;;5.68;4.47;;;5.80;1.00;;;;;;5129099;27;20244;-72
2023/11/11 05:02:47;;;;;;;5.10;4.60;;;5.80;1.00;;;;;;5131449;27;20264;-71
2023/11/11 05:05:14;;;;;;;4.72;4.10;;;5.90;1.00;;;;;;5139761;27;20322;-69
2023/11/11 05:07:41;;;;;;;4.43;4.03;;;5.90;1.00;;;;;;5140469;27;20240;-70
2023/11/11 05:10:10;;;;;;;5.72;4.40;;;5.80;1.00;;;;;;5139827;27;20457;-70
2023/11/11 05:12:37;;;;;;;10.00;6.30;;;5.70;1.00;;;;;;5132930;27;20351;-70
2023/11/11 05:15:13;;;;;;;12.60;4.90;;;5.80;1.00;;;;;;5123398;27;20545;-69
2023/11/11 05:17:43;;;;;;;5.50;5.00;;;5.70;1.00;;;;;;5123917;27;21047;-69
2023/11/11 05:20:11;;;;;;;6.03;4.10;;;5.70;1.00;;;;;;5120918;27;20335;-73
2023/11/11 05:22:38;;;;;;;5.20;4.13;;;5.60;1.00;;;;;;5124648;27;20240;-69
2023/11/11 05:25:06;;;;;;;4.88;4.47;;;5.60;1.00;;;;;;5130091;27;21166;-73
2023/11/11 05:27:33;;;;;;;5.00;4.55;;;5.70;1.00;;;;;;5123760;27;20239;-72
2023/11/11 05:30:00;;;;;;;5.55;4.30;;;5.70;1.00;;;;;;5134064;27;20243;-70
2023/11/11 05:32:27;;;;;;;5.82;5.00;;;5.70;1.00;;;;;;5122537;27;20239;-72
2023/11/11 05:34:57;;;;;;;5.45;4.25;;;5.60;1.00;;;;;;5122364;27;20241;-70
2023/11/11 05:37:24;;;;;;;4.28;3.90;;;5.70;1.00;;;;;;5124048;27;20240;-73
2023/11/11 05:39:51;;;;;;;5.95;4.25;;;5.60;1.00;;;;;;5131344;27;20239;-72
2023/11/11 05:42:18;;;;;;;4.13;3.83;;;5.60;1.00;;;;;;5137724;27;20323;-70
2023/11/11 05:44:45;;;;;;;8.50;4.68;;;5.60;1.00;;;;;;5125144;27;20234;-69
2023/11/11 05:47:12;;;;;;;4.57;4.18;;;5.60;1.00;;;;;;5126654;27;20357;-70
2023/11/11 05:49:40;;;;;;;7.65;5.28;;;5.60;1.00;;;;;;5118373;27;20255;-70
2023/11/11 05:52:09;;;;;;;6.25;4.72;;;5.70;1.00;;;;;;5123601;27;20243;-71
2023/11/11 05:54:37;;;;;;;5.15;4.63;;;5.70;1.00;;;;;;5126068;27;20267;-70
2023/11/11 05:57:05;;;;;;;4.70;4.30;;;5.80;1.00;;;;;;5138262;27;20972;-70
2023/11/11 05:59:31;;;;;;;4.85;4.45;;;5.80;1.00;;;;;;5123288;27;20331;-71
2023/11/11 06:01:58;;;;;;;6.40;4.97;;;5.80;1.00;;;;;;5136620;27;20318;-70
2023/11/11 06:04:25;;;;;;;5.20;4.70;;;5.80;1.00;;;;;;5143853;27;20301;-69
2023/11/11 06:06:55;;;;;;;6.78;5.13;;;5.70;1.00;;;;;;5143336;27;20321;-72
2023/11/11 06:09:24;;;;;;;5.75;5.22;;;5.80;1.00;;;;;;5140069;27;20252;-71
2023/11/11 06:11:52;;;;;;;7.13;5.80;;;5.80;1.00;;;;;;5141284;27;20736;-71
2023/11/11 06:14:19;;;;;;;5.07;4.68;;;5.80;1.00;;;;;;5143003;27;20236;-70
2023/11/11 06:16:47;;;;;;;5.07;4.35;;;5.80;1.00;;;;;;5119733;27;20321;-71
2023/11/11 06:19:16;;;;;;;5.45;4.35;;;5.90;1.00;;;;;;5127158;27;20913;-72
2023/11/11 06:21:43;;;;;;;4.27;3.87;;;5.90;1.00;;;;;;5122696;27;20751;-72
2023/11/11 06:24:10;;;;;;;4.80;4.07;;;5.90;1.00;;;;;;5127315;27;20455;-72
2023/11/11 06:26:39;;;;;;;5.43;4.60;;;5.80;1.00;;;;;;5142257;27;20293;-71
2023/11/11 06:29:06;;;;;;;4.90;3.95;;;5.90;1.00;;;;;;5146047;27;20454;-72
2023/11/11 06:31:34;;;;;;;4.35;3.90;;;5.80;1.00;;;;;;5141629;27;20249;-71
2023/11/11 06:34:01;;;;;;;4.80;4.40;;;5.70;1.00;;;;;;5112451;27;20243;-74
2023/11/11 06:36:28;;;;;;;5.70;4.47;;;5.70;1.00;;;;;;5121698;27;20290;-71
2023/11/11 06:38:56;;;;;;;5.88;4.18;;;5.70;1.00;;;;;;5121083;27;20498;-71
2023/11/11 06:41:23;;;;;;;5.20;3.78;;;5.70;1.00;;;;;;5119436;27;20287;-73
2023/11/11 06:43:51;;;;;;;4.65;4.35;;;5.70;1.00;;;;;;5143491;27;21057;-71
2023/11/11 06:46:18;;;;;;;4.70;4.00;;;5.60;1.00;;;;;;5150067;27;20312;-72
2023/11/11 06:48:45;;;;;;;5.20;4.25;;;5.70;1.00;;;;;;5143682;27;20465;-74
2023/11/11 06:51:12;;;;;;;5.72;4.30;;;5.60;1.00;;;;;;5144275;27;20733;-71
2023/11/11 06:53:39;;;;;;;6.55;5.78;;;5.60;1.00;;;;;;5145488;27;20292;-71
2023/11/11 06:56:07;;;;;;;4.97;4.53;;;5.50;1.00;;;;;;5132635;27;20239;-73
2023/11/11 06:58:34;;;;;;;5.60;5.07;;;5.50;1.00;;;;;;5125729;27;20237;-71
2023/11/11 07:01:03;;;;;;;5.07;4.35;;;5.50;1.00;;;;;;5138507;27;20239;-70
2023/11/11 07:03:34;;;;;;;6.90;6.18;;;5.50;1.00;;;;;;5145348;27;20236;-70
2023/11/11 07:06:01;;;;;;;7.25;5.95;;;5.50;1.00;;;;;;5148670;27;20242;-71
2023/11/11 07:08:30;;;;;;;6.90;4.95;;;5.50;1.00;;;;;;5147679;27;20243;-71
2023/11/11 07:10:57;;;;;;;11.60;5.35;;;5.40;1.00;;;;;;5141293;27;20243;-71
2023/11/11 07:13:24;;;;;;;6.10;4.38;;;5.40;1.00;;;;;;5129352;27;20331;-72
2023/11/11 07:15:51;;;;;;;4.78;3.85;;;5.40;1.00;;;;;;5148034;27;20326;-75
2023/11/11 07:18:20;;;;;;;6.28;5.68;;;5.40;1.00;;;;;;5139999;27;20259;-73
2023/11/11 07:20:46;;;;;;;4.68;4.28;;;5.40;1.00;;;;;;5139952;27;20774;-74
2023/11/11 07:23:14;;;;;;;4.28;3.83;;;5.50;1.00;;;;;;5147900;27;20272;-70
2023/11/11 07:25:43;;;;;;;4.20;3.80;;;5.70;1.00;;;;;;5144189;27;20242;-70
2023/11/11 07:28:10;;;;;;;4.18;3.83;;;5.80;1.00;;;;;;5149812;27;21097;-79
2023/11/11 07:30:39;;;;;;;4.75;3.92;;;6.00;1.00;;;;;;5137164;27;20238;-78
2023/11/11 07:33:06;;;;;;;4.32;3.83;;;6.10;1.00;;;;;;5134059;27;20263;-81
2023/11/11 07:35:35;;;;;;;4.43;3.95;;;6.20;1.00;;;;;;5146675;27;20309;-79
2023/11/11 07:38:04;;;;;;;5.97;4.20;;;6.30;1.00;;;;;;5130401;27;21583;-81
2023/11/11 07:40:31;;;;;;;3.65;3.10;;;6.30;1.00;;;;;;5127085;27;20459;-75
2023/11/11 07:42:58;;;;;;;5.32;3.58;;;6.50;1.00;;;;;;5127244;27;20238;-75
2023/11/11 07:45:25;;;;;;;4.07;3.27;;;6.50;1.00;;;;;;5128839;27;20238;-79
2023/11/11 07:47:53;;;;;;;5.10;3.10;;;6.60;1.00;;;;;;5139533;27;20974;-78
2023/11/11 07:50:21;;;;;;;4.50;4.10;;;6.70;1.00;;;;;;5138186;27;20451;-78
2023/11/11 07:52:50;;;;;;;4.83;4.43;;;6.80;1.00;;;;;;5126720;27;20459;-80
2023/11/11 07:55:17;;;;;;;4.50;4.03;;;6.90;1.00;;;;;;5130573;27;20468;-77
2023/11/11 07:57:44;;;;;;;4.30;3.83;;;6.90;1.00;;;;;;5145969;27;20551;-73
2023/11/11 08:00:16;;;;;;;6.43;4.17;;;7.00;1.00;;;;;;5132660;27;20236;-77
2023/11/11 08:02:43;;;;;;;4.13;3.60;;;6.90;1.00;;;;;;5138220;27;21723;-79
2023/11/11 08:05:10;;;;;;;4.10;3.80;;;6.90;1.00;;;;;;5142704;27;20468;-75
2023/11/11 08:07:38;;;;;;;4.75;3.92;;;7.00;1.00;;;;;;5125363;27;20471;-81
2023/11/11 08:10:07;;;;;;;6.30;4.93;;;7.20;1.00;;;;;;5142339;27;20258;-78
2023/11/11 08:12:34;;;;;;;4.03;3.73;;;7.30;1.00;;;;;;5143619;27;20964;-78
2023/11/11 08:15:03;;;;;;;4.77;4.27;;;7.40;1.00;;;;;;5125832;27;20480;-74
2023/11/11 08:17:31;;;;;;;4.10;3.70;;;7.40;1.00;;;;;;5126706;27;20463;-74
2023/11/11 08:20:00;;;;;;;4.50;4.10;;;7.40;1.00;;;;;;5124146;27;20460;-77
2023/11/11 08:22:27;;;;;;;6.50;5.90;;;7.60;1.00;;;;;;5130696;27;20550;-81
2023/11/11 08:24:54;;;;;;;7.37;5.60;;;7.70;1.00;;;;;;5146969;27;20485;-81
2023/11/11 08:27:23;;;;;;;6.20;4.63;;;7.90;1.00;;;;;;5147013;27;20501;-75
2023/11/11 08:29:50;;;;;;;4.07;3.67;;;8.10;1.00;;;;;;5129764;27;20476;-80
2023/11/11 08:32:17;;;;;;;7.00;4.40;;;8.20;1.00;;;;;;5147430;27;20484;-78
2023/11/11 08:34:44;;;;;;;4.23;3.83;;;8.20;1.00;;;;;;5147889;27;20468;-80
2023/11/11 08:37:11;;;;;;;5.00;4.50;;;8.40;1.00;;;;;;5132256;27;20453;-70
2023/11/11 08:39:38;;;;;;;8.00;4.63;;;8.50;1.00;;;;;;5118352;27;20473;-72
2023/11/11 08:42:06;;;;;;;5.07;4.60;;;8.60;1.00;;;;;;5129385;27;20517;-73
2023/11/11 08:44:34;;;;;;;4.83;4.43;;;8.60;1.00;;;;;;5136789;27;20479;-73
2023/11/11 08:47:01;;;;;;;5.13;4.30;;;8.50;1.00;;;;;;5128727;27;20481;-70
2023/11/11 08:49:28;;;;;;;7.20;4.67;;;8.70;1.00;;;;;;5125998;27;20552;-69
2023/11/11 08:51:55;;;;;;;4.33;3.90;;;8.90;1.00;;;;;;5126967;27;20506;-71
2023/11/11 08:54:21;;;;;;;4.33;3.93;;;9.00;1.00;;;;;;5125223;27;21095;-72
2023/11/11 08:56:48;;;;;;;5.73;4.20;;;8.90;1.00;;;;;;5118365;27;21042;-70
2023/11/11 08:59:16;;;;;;;4.70;4.30;;;9.10;1.00;;;;;;5128335;27;20461;-70
2023/11/11 09:01:44;;;;;;;4.83;4.33;;;9.10;1.00;;;;;;5139045;27;20461;-70
2023/11/11 09:04:11;;;;;;;5.63;4.13;;;9.30;1.00;;;;;;5123552;27;20472;-70
2023/11/11 09:06:38;;;;;;;4.53;4.00;;;9.30;1.00;;;;;;5123419;27;20464;-70
2023/11/11 09:09:06;;;;;;;4.30;3.93;;;9.40;1.00;;;;;;5122364;27;20555;-71
2023/11/11 09:11:36;;;;;;;4.00;3.60;;;9.20;1.00;;;;;;5124965;27;20463;-74
2023/11/11 09:14:05;;;;;;;4.17;3.77;;;9.20;1.00;;;;;;5122471;27;20464;-73
2023/11/11 09:16:32;;;;;;;5.00;3.27;;;9.30;1.00;;;;;;5142044;27;20531;-71
2023/11/11 09:19:02;;;;;;;7.13;3.67;;;9.40;1.00;;;;;;5144457;27;20543;-71
2023/11/11 09:21:29;;;;;;;5.53;4.60;;;9.50;1.00;;;;;;5134462;27;20445;-72
2023/11/11 09:23:57;;;;;;;11.03;6.17;;;9.50;1.00;;;;;;5124761;27;20526;-70
2023/11/11 09:26:24;;;;;;;6.30;3.73;;;9.60;1.00;;;;;;5124963;27;20451;-70
2023/11/11 09:28:51;;;;;;;4.37;3.60;;;9.70;1.00;;;;;;5129513;27;20562;-70
2023/11/11 09:31:20;;;;;;;8.57;4.20;;;9.90;1.00;;;;;;5137267;27;20463;-73
2023/11/11 09:33:51;;;;;;;4.20;3.80;;;10.00;1.00;;;;;;5143121;27;20475;-71
2023/11/11 09:36:19;;;;;;;3.93;3.63;;;10.00;1.00;;;;;;5130590;27;20445;-71
2023/11/11 09:38:48;;;;;;;6.53;4.10;;;10.00;1.00;;;;;;5122636;27;20461;-71
2023/11/11 09:41:16;;;;;;;5.37;4.00;;;10.10;1.00;;;;;;5133919;27;20463;-71
2023/11/11 09:43:42;;;;;;;7.50;3.63;;;10.20;1.00;;;;;;5126413;27;20518;-70
2023/11/11 09:46:16;;;;;;;5.37;4.30;;;10.40;1.00;;;;;;5123186;27;20448;-71
2023/11/11 09:48:43;;;;;;;3.57;3.27;;;10.40;1.00;;;;;;5125764;27;20452;-75
2023/11/11 09:51:12;;;;;;;3.77;3.47;;;10.50;1.00;;;;;;5125771;27;21276;-77
2023/11/11 09:53:42;;;;;;;4.00;3.60;;;10.70;1.00;;;;;;5122205;27;20547;-76
2023/11/11 09:56:11;;;;;;;4.57;3.20;;;10.80;1.00;;;;;;5126855;27;20978;-75
2023/11/11 09:58:39;;;;;;;7.47;3.77;;;10.90;1.00;;;;;;5139636;27;20548;-75
2023/11/11 10:01:06;;;;;;;5.00;3.60;;;10.80;1.00;;;;;;5130795;27;21105;-77
2023/11/11 10:03:33;;;;;;;8.60;4.17;;;10.70;1.00;;;;;;5126683;27;20473;-74
2023/11/11 10:06:01;;;;;;;4.30;3.30;;;10.50;1.00;;;;;;5131160;27;20463;-77
2023/11/11 10:08:29;;;;;;;5.30;4.80;;;10.50;1.00;;;;;;5133336;27;20557;-77
2023/11/11 10:10:57;;;;;;;3.87;3.30;;;10.60;1.00;;;;;;5122000;27;20579;-76
2023/11/11 10:13:25;;;;;;;4.20;2.80;;;10.60;1.00;;;;;;5118310;27;20466;-76
2023/11/11 10:16:08;;;;;;;3.60;2.90;;;10.60;1.00;;;;;;5126958;27;20449;-76
2023/11/11 10:18:35;;;;;;;4.10;3.70;;;10.60;1.00;;;;;;5124599;27;20835;-75
2023/11/11 10:21:03;;;;;;;4.70;3.60;;;10.60;1.00;;;;;;5150461;27;20799;-78
2023/11/11 10:23:30;;;;;;;4.63;3.83;;;10.80;1.00;;;;;;5150157;27;20834;-77
2023/11/11 10:25:59;;;;;;;4.00;3.60;;;10.80;1.00;;;;;;5147135;27;20548;-76
2023/11/11 10:28:26;;;;;;;3.90;3.50;;;10.90;1.00;;;;;;5127529;27;20425;-75
2023/11/11 10:30:53;;;;;;;4.40;3.83;;;11.00;1.00;;;;;;5132202;27;20485;-75
2023/11/11 10:33:20;;;;;;;7.40;4.20;;;10.90;1.00;;;;;;5128124;27;20518;-74
2023/11/11 10:35:47;;;;;;;6.23;3.90;;;11.10;1.00;;;;;;5135885;27;20464;-76
2023/11/11 10:38:15;;;;;;;4.10;3.30;;;11.20;1.00;;;;;;5120722;27;20895;-77
2023/11/11 10:40:43;;;;;;;4.20;3.80;;;11.30;1.00;;;;;;5130004;27;20612;-77
2023/11/11 10:43:15;;;;;;;6.90;3.30;;;11.40;1.00;;;;;;5145729;27;20467;-75
2023/11/11 10:45:42;;;;;;;5.30;4.80;;;11.60;1.00;;;;;;5126663;27;20523;-75
2023/11/11 10:48:10;;;;;;;5.10;3.50;;;11.60;1.00;;;;;;5126692;27;20518;-76
2023/11/11 10:50:40;;;;;;;5.03;3.33;;;11.60;1.00;;;;;;5148383;27;20461;-76
2023/11/11 10:53:09;;;;;;;4.30;3.90;;;11.60;1.00;;;;;;5149446;27;21160;-75
2023/11/11 10:55:39;;;;;;;4.20;3.17;;;11.60;1.00;;;;;;5130443;27;20428;-77
2023/11/11 10:58:08;;;;;;;5.00;3.53;;;11.50;1.00;;;;;;5137539;27;20460;-72
2023/11/11 11:00:37;;;;;;;4.20;3.80;;;11.50;1.00;;;;;;5128145;27;20961;-71
2023/11/11 11:03:05;;;;;;;4.43;3.83;;;11.40;1.00;;;;;;5125483;27;20468;-71
2023/11/11 11:05:39;;;;;;;5.00;4.53;;;11.30;1.00;;;;;;5118389;27;20461;-72
2023/11/11 11:08:18;;;;;;;4.87;4.30;;;11.30;1.00;;;;;;5123380;27;20552;-70
2023/11/11 11:10:54;;;;;;;4.90;4.10;;;11.40;1.00;;;;;;5137195;27;20547;-71
2023/11/11 11:13:22;;;;;;;4.20;3.90;;;11.40;1.00;;;;;;5132223;27;20465;-72
2023/11/11 11:15:51;;;;;;;4.90;3.90;;;11.50;1.00;;;;;;5119238;27;20499;-73
2023/11/11 11:18:23;;;;;;;3.97;3.60;;;11.40;1.00;;;;;;5127494;27;20456;-69
2023/11/11 11:20:53;;;;;;;5.17;4.10;;;11.40;1.00;;;;;;5131860;27;20826;-73
2023/11/11 11:23:21;;;;;;;4.10;3.70;;;11.40;1.00;;;;;;5128492;27;20986;-70
2023/11/11 11:25:50;;;;;;;4.10;3.67;;;11.40;1.00;;;;;;5137749;27;20532;-69
2023/11/11 11:28:21;;;;;;;7.10;3.90;;;11.50;1.00;;;;;;5146738;27;20949;-70
2023/11/11 11:30:54;;;;;;;4.47;4.07;;;11.50;1.00;;;;;;5141982;27;20409;-71
2023/11/11 11:33:23;;;;;;;3.83;3.53;;;11.70;1.00;;;;;;5134611;27;20467;-76
2023/11/11 11:35:53;;;;;;;5.37;4.10;;;11.60;1.00;;;;;;5143677;27;20453;-70
2023/11/11 11:38:28;;;;;;;6.03;4.00;;;11.60;1.00;;;;;;5126391;27;20468;-71
2023/11/11 11:41:06;;;;;;;3.70;3.40;;;11.70;1.00;;;;;;5124599;27;20441;-71
2023/11/11 11:43:34;;;;;;;4.00;3.70;;;11.90;1.00;;;;;;5124140;27;20566;-70
2023/11/11 11:46:04;;;;;;;5.07;4.20;;;11.90;1.00;;;;;;5120536;27;20452;-72
2023/11/11 11:48:32;;;;;;;4.80;4.27;;;12.00;1.00;;;;;;5124052;27;20549;-71
2023/11/11 11:51:08;;;;;;;4.27;3.97;;;12.30;1.00;;;;;;5128285;27;20500;-71
2023/11/11 11:53:35;;;;;;;15.10;5.90;;;12.70;1.00;;;;;;5128695;27;20486;-71
2023/11/11 11:56:02;;;;;;;4.93;4.30;;;13.00;1.00;;;;;;5128327;27;20933;-70
2023/11/11 11:58:43;;;;;;;5.70;4.13;;;12.90;1.00;;;;;;5126744;27;21111;-71
2023/11/11 12:01:11;;;;;;;4.47;3.70;;;12.90;1.00;;;;;;5123271;27;20504;-71
2023/11/11 12:03:38;;;;;;;5.37;4.60;;;12.90;1.00;;;;;;5121702;27;20485;-71
2023/11/11 12:06:06;;;;;;;3.73;3.43;;;13.10;1.00;;;;;;5126701;27;20448;-71
2023/11/11 12:08:33;;;;;;;8.23;4.50;;;13.10;1.00;;;;;;5126841;27;20477;-71
2023/11/11 12:11:00;;;;;;;7.50;4.73;;;13.00;1.00;;;;;;5126341;27;21787;-70
2023/11/11 12:13:26;;;;;;;4.50;4.10;;;13.20;1.00;;;;;;5127902;27;22110;-71
2023/11/11 12:15:53;;;;;;;5.03;3.93;;;13.80;1.00;;;;;;5127782;27;20452;-69
2023/11/11 12:18:22;;;;;;;5.00;4.10;;;15.00;1.00;;;;;;5127038;27;20903;-73
2023/11/11 12:20:50;;;;;;;3.53;3.23;;;16.50;1.00;;;;;;5124040;27;20546;-71
2023/11/11 12:23:18;;;;;;;19.13;17.20;;;18.40;1.00;;;;;;5123946;27;20490;-69
2023/11/11 12:25:46;;;;;;;4.80;3.67;;;19.40;1.00;;;;;;5125675;27;20486;-73
2023/11/11 12:28:13;;;;;;;5.87;3.33;;;19.40;1.00;;;;;;5125516;27;21774;-71
2023/11/11 12:30:41;;;;;;;4.27;3.87;;;19.00;1.00;;;;;;5125327;27;20969;-75
2023/11/11 12:33:09;;;;;;;5.83;3.67;;;18.60;1.00;;;;;;5128298;27;20562;-70
2023/11/11 12:35:41;;;;;;;5.00;4.50;;;18.00;1.00;;;;;;5126561;27;21146;-72
2023/11/11 12:38:24;;;;;;;4.50;3.50;;;17.00;1.00;;;;;;5119744;27;20461;-72
2023/11/11 12:40:52;;;;;;;5.63;3.20;;;16.00;1.00;;;;;;5145823;27;20455;-71
2023/11/11 12:43:20;;;;;;;7.97;7.03;;;15.20;1.00;;;;;;5132236;27;20480;-69
2023/11/11 12:45:47;;;;;;;7.93;4.00;;;14.70;1.00;;;;;;5100534;27;20450;-71
2023/11/11 12:48:16;;;;;;;4.07;3.67;;;14.10;1.00;;;;;;5144398;27;20551;-70
2023/11/11 12:50:46;;;;;;;4.83;3.80;;;13.70;1.00;;;;;;5146219;27;20451;-71
2023/11/11 12:53:14;;;;;;;4.10;3.40;;;13.50;1.00;;;;;;5142154;27;20481;-69
2023/11/11 12:55:42;;;;;;;5.03;3.57;;;13.30;1.00;;;;;;5135558;27;20453;-70
2023/11/11 12:58:26;;;;;;;6.40;3.97;;;13.00;1.00;;;;;;5127771;27;21087;-70
2023/11/11 13:00:55;;;;;;;4.60;4.03;;;12.70;1.00;;;;;;5138102;27;21178;-71
2023/11/11 13:03:25;;;;;;;5.73;3.43;;;12.50;1.00;;;;;;5136821;27;20579;-71
2023/11/11 13:05:55;;;;;;;7.10;4.10;;;12.40;1.00;;;;;;5125842;27;20826;-71
2023/11/11 13:08:23;;;;;;;9.17;3.80;;;12.30;1.00;;;;;;5127219;27;20471;-71
2023/11/11 13:10:53;;;;;;;6.10;4.00;;;12.10;1.00;;;;;;5127018;27;20541;-70